Strona główna
METAR-TAF:

METAR-TAF

Lotnisko :

Port lotniczy Nadżran

Nadżran, Arabia Saudyjska

Szerokość geograficzna: 17-37N, Długość geograficzna: 044-25E, wysokość: 1212 m

Aktualna obserwacja pogody

Raport powstał 1 godzina i 7 minut temu, godzina 21:00 UTC
Cisza
Temperatura 16°C
Wilgotność 39%
Ciśnienie 1022 hPa
Widzialność 10 km lub więcej
Brak chmur poniżej 1500 m i brak chmur cumulonimbus

METAR: OENG 292100Z 00000KT CAVOK 16/02 Q1022 NOSIG

czas: 01:07 (22:07 UTC)

Prognoza

Raport powstał 11 godziny i 7 minut temu, godzina 11:00 UTC
Prognoza ważna od 29 godzina 12 UTC do 30 godzina 18 UTC
Wiatr 10 kt od wschodnio-południowy wschód
Widzialność: 7000 m
Stopniowe zmiany
od 29 godzina 18 UTC do 29 godzina 20 UTC
Wiatr 3 kt z kierunków zmiennych

TAF: OENG 291100Z 2912/3018 12010KT 7000 NSC BECMG 2918/2920 VRB03KT

Obserwacja i prognoza pogody dla ponad 4000 lotnisk (raport METAR i TAF).

Dostępne stacje oznaczono żółtymi i czerwonymi punktami na mapie.

Najedź kursorem aby zobaczyć nazwę stacji.

Kliknij aby zobaczyć obserwacje i prognozy pogody.

Aby zmienić mapę: kliknij na zielony przycisk z czarnym krzyżykiem, aby powiększyć; na zielony przycisk z myślnikiem, aby pomniejszyć; na zielone strzałki, aby przejść do map sąsiednich.


METAR-TAF: